Time;durP1;ratioP1;P1;durP2;ratioP2;P2;SDS_P1;SDS_P2;PMS_P1;PMS_P2;Temp;Humidity;BMP_temperature;BMP_pressure;BME280_temperature;BME280_humidity;BME280_pressure;Samples;Min_cycle;Max_cycle;Signal;HPM_P1;HPM_P2
2023/08/13 00:01:46;;;;;;;7.00;5.70;;;;;;;21.75;100.00;96665.00;4970591;28;102513;-76
2023/08/13 00:04:14;;;;;;;6.83;6.13;;;;;;;21.66;100.00;96662.25;4968545;28;102912;-76
2023/08/13 00:06:42;;;;;;;5.67;5.17;;;;;;;21.65;100.00;96665.25;4969357;28;101918;-78
2023/08/13 00:09:09;;;;;;;6.47;5.87;;;;;;;21.40;100.00;96661.34;4952714;28;104003;-78
2023/08/13 00:11:36;;;;;;;6.97;5.67;;;;;;;21.44;100.00;96665.03;4968443;28;105463;-78
2023/08/13 00:14:03;;;;;;;7.33;5.87;;;;;;;21.44;100.00;96664.22;4970252;28;101876;-78
2023/08/13 00:16:30;;;;;;;6.93;5.97;;;;;;;21.50;100.00;96658.38;4952521;28;105332;-78
2023/08/13 00:18:57;;;;;;;10.73;7.70;;;;;;;21.40;100.00;96661.34;4952036;28;105804;-78
2023/08/13 00:21:24;;;;;;;5.60;5.00;;;;;;;21.55;100.00;96658.22;4956178;28;101878;-79
2023/08/13 00:23:52;;;;;;;5.37;4.87;;;;;;;21.42;100.00;96661.81;4952073;28;104502;-79
2023/08/13 00:26:19;;;;;;;4.53;4.13;;;;;;;21.49;100.00;96666.78;4969529;28;102416;-79
2023/08/13 00:28:46;;;;;;;5.00;4.43;;;;;;;21.23;100.00;96668.56;4969011;28;103966;-80
2023/08/13 00:31:13;;;;;;;5.13;4.07;;;;;;;21.29;100.00;96667.34;4951842;28;105365;-79
2023/08/13 00:33:40;;;;;;;5.67;4.10;;;;;;;21.19;100.00;96673.03;4952333;28;102042;-80
2023/08/13 00:36:07;;;;;;;5.30;4.23;;;;;;;21.30;100.00;96671.66;4952103;28;105478;-82
2023/08/13 00:38:34;;;;;;;4.17;3.40;;;;;;;21.49;100.00;96673.03;4969640;28;102777;-82
2023/08/13 00:41:03;;;;;;;3.90;3.60;;;;;;;21.50;100.00;96666.50;4968773;28;101978;-82
2023/08/13 00:43:30;;;;;;;5.50;4.73;;;;;;;21.40;100.00;96671.38;4955146;28;105682;-83
2023/08/13 00:45:58;;;;;;;4.30;3.90;;;;;;;21.39;100.00;96673.28;4968622;28;102038;-77
2023/08/13 00:48:25;;;;;;;5.03;4.63;;;;;;;21.34;100.00;96673.41;4952119;28;105350;-77
2023/08/13 00:50:52;;;;;;;5.03;4.53;;;;;;;21.28;100.00;96676.56;4951763;28;105122;-77
2023/08/13 00:53:20;;;;;;;5.33;4.70;;;;;;;21.25;100.00;96659.03;4969915;28;102330;-77
2023/08/13 00:55:47;;;;;;;5.53;5.03;;;;;;;21.23;100.00;96668.56;4952185;28;105155;-78
2023/08/13 00:58:15;;;;;;;6.63;5.60;;;;;;;21.05;100.00;96661.50;4951627;28;104271;-78
2023/08/13 01:00:43;;;;;;;6.50;5.43;;;;;;;20.99;100.00;96674.31;4952041;28;102201;-78
2023/08/13 01:03:10;;;;;;;5.40;4.90;;;;;;;20.98;100.00;96678.16;4968479;28;103837;-79
2023/08/13 01:05:42;;;;;;;5.80;5.07;;;;;;;20.95;100.00;96664.44;4971299;28;105576;-79
2023/08/13 01:08:15;;;;;;;6.93;4.97;;;;;;;20.89;100.00;96665.69;4952160;28;103827;-79
2023/08/13 01:10:46;;;;;;;6.13;4.50;;;;;;;21.06;100.00;96668.50;4951377;28;105299;-79
2023/08/13 01:13:21;;;;;;;5.00;4.60;;;;;;;20.97;100.00;96671.16;4952068;28;102120;-79
2023/08/13 01:15:49;;;;;;;4.93;3.90;;;;;;;21.00;100.00;96675.94;4951911;28;105609;-76
2023/08/13 01:18:17;;;;;;;5.70;4.93;;;;;;;21.04;100.00;96676.13;4951314;28;105432;-73
2023/08/13 01:20:45;;;;;;;4.97;4.47;;;;;;;21.05;100.00;96675.81;4951843;28;102186;-75
2023/08/13 01:23:14;;;;;;;6.77;4.97;;;;;;;20.98;100.00;96677.38;4951935;28;105049;-76
2023/08/13 01:25:47;;;;;;;5.53;5.03;;;;;;;20.62;100.00;96680.09;4968870;28;102760;-78
2023/08/13 01:28:25;;;;;;;5.17;4.40;;;;;;;20.62;100.00;96684.69;4955304;28;101965;-78
2023/08/13 01:30:55;;;;;;;4.67;4.23;;;;;;;20.60;100.00;96700.44;4950975;28;104666;-78
2023/08/13 01:33:27;;;;;;;4.80;4.40;;;;;;;20.52;100.00;96687.63;4968015;28;102148;-79
2023/08/13 01:35:56;;;;;;;5.23;4.60;;;;;;;20.40;100.00;96679.28;4951913;28;104925;-80
2023/08/13 01:38:25;;;;;;;4.83;4.33;;;;;;;20.46;100.00;96691.56;4951503;28;105539;-80
2023/08/13 01:40:53;;;;;;;5.00;4.20;;;;;;;20.40;100.00;96684.69;4968089;28;102292;-80
2023/08/13 01:43:20;;;;;;;4.23;3.90;;;;;;;20.42;100.00;96685.16;4951595;28;103997;-81
2023/08/13 01:45:47;;;;;;;5.97;4.37;;;;;;;20.42;100.00;96693.25;4950973;28;106546;-82
2023/08/13 01:48:14;;;;;;;4.67;4.27;;;;;;;20.40;100.00;96679.28;4958304;28;102098;-82
2023/08/13 01:50:42;;;;;;;6.10;4.30;;;;;;;20.38;100.00;96678.78;4954380;28;105211;-81
2023/08/13 01:53:08;;;;;;;6.67;4.13;;;;;;;20.42;100.00;96679.75;4971271;28;101954;-82
2023/08/13 01:55:37;;;;;;;5.00;4.20;;;;;;;20.46;100.00;96686.16;4954990;28;105189;-82
2023/08/13 01:58:04;;;;;;;5.83;4.10;;;;;;;20.31;100.00;96689.19;4954233;28;105383;-81
2023/08/13 02:00:31;;;;;;;5.93;4.83;;;;;;;20.08;100.00;96696.47;4954803;28;102062;-81
2023/08/13 02:02:58;;;;;;;4.87;4.37;;;;;;;20.23;100.00;96698.03;4954846;28;105396;-81
2023/08/13 02:05:25;;;;;;;4.93;4.43;;;;;;;20.26;100.00;96698.22;4954225;28;105509;-81
2023/08/13 02:07:52;;;;;;;5.33;4.30;;;;;;;20.05;100.00;96702.44;4954773;28;102063;-81
2023/08/13 02:10:19;;;;;;;4.57;4.17;;;;;;;20.14;100.00;96699.84;4973555;28;105340;-81
2023/08/13 02:12:47;;;;;;;6.53;4.43;;;;;;;20.20;100.00;96693.22;4970646;28;102002;-77
2023/08/13 02:15:14;;;;;;;3.93;3.73;;;;;;;20.18;100.00;96695.44;4970717;28;104893;-78
2023/08/13 02:17:45;;;;;;;4.33;3.80;;;;;;;20.28;100.00;96706.81;4953848;28;103063;-78
2023/08/13 02:20:13;;;;;;;4.30;3.90;;;;;;;20.37;100.00;96701.47;4970611;28;102140;-78
2023/08/13 02:22:40;;;;;;;5.17;3.90;;;;;;;20.42;100.00;96704.06;4954388;28;104842;-78
2023/08/13 02:25:08;;;;;;;6.70;3.70;;;;;;;20.41;100.00;96703.28;4953850;28;105790;-78
2023/08/13 02:27:37;;;;;;;3.97;3.67;;;;;;;20.32;100.00;96709.72;4954074;28;101884;-77
2023/08/13 02:30:08;;;;;;;3.70;3.40;;;;;;;20.21;100.00;96706.44;4954277;28;105352;-77
2023/08/13 02:32:35;;;;;;;4.67;3.87;;;;;;;20.08;100.00;96709.16;4957087;28;105461;-77
2023/08/13 02:35:02;;;;;;;5.47;3.50;;;;;;;20.18;100.00;96709.75;4953998;28;105247;-77
2023/08/13 02:37:29;;;;;;;3.90;3.50;;;;;;;20.25;100.00;96717.41;4969769;28;105637;-77
2023/08/13 02:39:57;;;;;;;4.80;4.10;;;;;;;20.15;100.00;96712.25;4954104;28;101951;-77
2023/08/13 02:42:24;;;;;;;4.40;4.10;;;;;;;20.04;100.00;96710.81;4954195;28;105027;-77
2023/08/13 02:44:51;;;;;;;4.90;3.93;;;;;;;19.88;100.00;96720.34;4953331;28;105783;-77
2023/08/13 02:47:20;;;;;;;6.53;3.90;;;;;;;19.69;100.00;96717.75;4954040;28;102026;-82
2023/08/13 02:49:46;;;;;;;5.30;3.87;;;;;;;19.55;100.00;96725.03;4953875;28;105539;-77
2023/08/13 02:52:13;;;;;;;4.60;4.20;;;;;;;19.56;100.00;96728.56;4953403;28;104023;-78
2023/08/13 02:54:40;;;;;;;3.93;3.60;;;;;;;19.64;100.00;96727.84;4957461;28;102279;-78
2023/08/13 02:57:07;;;;;;;8.30;4.10;;;;;;;19.75;100.00;96729.25;4953022;28;105561;-79
2023/08/13 02:59:34;;;;;;;5.67;4.20;;;;;;;19.77;100.00;96718.94;4953967;28;102215;-73
2023/08/13 03:02:01;;;;;;;5.07;4.67;;;;;;;19.69;100.00;96720.47;4953956;28;104207;-72
2023/08/13 03:04:30;;;;;;;4.93;4.43;;;;;;;19.59;100.00;96714.44;4969494;28;105354;-73
2023/08/13 03:06:57;;;;;;;5.47;4.00;;;;;;;19.69;100.00;96725.03;4953723;28;101999;-72
2023/08/13 03:09:24;;;;;;;5.80;4.33;;;;;;;19.75;100.00;96729.25;4953656;28;105480;-72
2023/08/13 03:11:50;;;;;;;4.87;4.47;;;;;;;19.77;100.00;96721.63;4952927;28;105524;-72
2023/08/13 03:14:19;;;;;;;6.20;4.60;;;;;;;19.63;100.00;96715.47;4953620;28;102235;-73
2023/08/13 03:16:47;;;;;;;4.80;4.40;;;;;;;19.62;100.00;96722.72;4956418;28;105420;-73
2023/08/13 03:19:14;;;;;;;5.77;5.13;;;;;;;19.52;100.00;96720.22;4937552;28;102010;-73
2023/08/13 03:21:46;;;;;;;4.30;3.90;;;;;;;19.46;100.00;96720.63;4953647;28;105262;-76
2023/08/13 03:24:13;;;;;;;5.07;4.27;;;;;;;19.46;100.00;96720.63;4952755;28;105378;-76
2023/08/13 03:26:41;;;;;;;5.07;4.57;;;;;;;19.42;100.00;96716.94;4952707;28;102042;-76
2023/08/13 03:29:08;;;;;;;4.60;4.20;;;;;;;19.52;100.00;96722.16;4953497;28;103840;-76
2023/08/13 03:31:35;;;;;;;4.50;4.20;;;;;;;19.61;100.00;96728.47;4952783;28;104028;-76
2023/08/13 03:34:14;;;;;;;4.80;4.30;;;;;;;19.70;100.00;96726.63;4969416;28;102003;-76
2023/08/13 03:36:41;;;;;;;4.83;4.43;;;;;;;19.72;100.00;96724.47;4953121;28;105625;-75
2023/08/13 03:39:09;;;;;;;6.10;5.50;;;;;;;19.57;100.00;96714.75;4956164;28;105388;-84
2023/08/13 03:41:36;;;;;;;5.73;4.83;;;;;;;19.72;100.00;96722.53;4969705;28;102748;-84
2023/08/13 03:44:03;;;;;;;5.00;4.47;;;;;;;19.72;100.00;96711.75;4952828;28;105842;-83
2023/08/13 03:46:30;;;;;;;6.87;4.43;;;;;;;19.75;100.00;96726.53;4953196;28;101931;-83
2023/08/13 03:48:58;;;;;;;5.07;4.67;;;;;;;19.76;100.00;96725.44;4969070;28;104615;-83
2023/08/13 03:51:25;;;;;;;5.73;5.10;;;;;;;19.60;100.00;96718.75;4952575;28;104147;-76
2023/08/13 03:53:52;;;;;;;5.77;5.17;;;;;;;19.38;100.00;96710.53;4970689;28;101876;-76
2023/08/13 03:56:23;;;;;;;6.20;4.77;;;;;;;19.48;100.00;96715.72;4970339;28;102883;-76
2023/08/13 03:58:50;;;;;;;4.43;4.10;;;;;;;19.49;100.00;96714.63;4955809;28;105040;-76
2023/08/13 04:01:17;;;;;;;5.00;4.27;;;;;;;19.48;100.00;96718.44;4952918;28;105049;-76
2023/08/13 04:03:47;;;;;;;6.07;5.07;;;;;;;19.22;100.00;96722.69;4952643;28;105371;-75
2023/08/13 04:06:15;;;;;;;9.43;5.63;;;;;;;19.15;100.00;96716.84;4952908;28;102056;-76
2023/08/13 04:08:42;;;;;;;5.10;4.60;;;;;;;19.24;100.00;96717.81;4952368;28;104735;-80
2023/08/13 04:11:09;;;;;;;5.73;5.23;;;;;;;19.13;100.00;96717.13;4968216;28;105449;-77
2023/08/13 04:13:37;;;;;;;5.47;4.97;;;;;;;19.19;100.00;96713.25;4952742;28;101861;-80
2023/08/13 04:16:04;;;;;;;6.77;4.97;;;;;;;19.33;100.00;96707.91;4968865;28;104890;-80
2023/08/13 04:18:33;;;;;;;7.50;5.20;;;;;;;19.38;100.00;96710.53;4952111;28;105108;-81
2023/08/13 04:21:00;;;;;;;7.70;5.47;;;;;;;19.44;100.00;96709.31;4956103;28;101993;-81
2023/08/13 04:23:27;;;;;;;6.43;5.80;;;;;;;19.25;100.00;96714.00;4951967;28;105538;-83
2023/08/13 04:25:55;;;;;;;5.57;5.00;;;;;;;19.20;100.00;96712.19;4952252;28;101989;-82
2023/08/13 04:28:22;;;;;;;4.80;4.40;;;;;;;19.25;100.00;96714.00;4952731;28;105008;-77
2023/08/13 04:30:50;;;;;;;5.10;4.60;;;;;;;19.25;100.00;96708.63;4951872;28;106083;-77
2023/08/13 04:33:17;;;;;;;4.67;4.23;;;;;;;19.37;100.00;96703.53;4968915;28;101872;-75
2023/08/13 04:35:44;;;;;;;4.80;4.50;;;;;;;19.56;100.00;96701.56;4952405;28;104894;-74
2023/08/13 04:38:12;;;;;;;5.43;4.70;;;;;;;19.61;100.00;96699.56;4968008;28;105375;-74
2023/08/13 04:40:43;;;;;;;5.50;4.40;;;;;;;19.55;100.00;96697.25;4936912;28;101954;-76
2023/08/13 04:43:10;;;;;;;4.83;4.43;;;;;;;19.55;100.00;96691.84;4955046;28;105953;-76
2023/08/13 04:45:39;;;;;;;5.63;4.57;;;;;;;19.46;100.00;96686.34;4952340;28;101995;-76
2023/08/13 04:48:07;;;;;;;4.83;4.30;;;;;;;19.34;100.00;96686.06;4952211;28;105282;-76
2023/08/13 04:50:37;;;;;;;5.43;4.20;;;;;;;19.27;100.00;96676.75;4951673;28;105088;-77
2023/08/13 04:53:04;;;;;;;17.57;4.97;;;;;;;19.54;100.00;96679.47;4952248;28;101977;-77
2023/08/13 04:55:31;;;;;;;4.27;3.90;;;;;;;19.63;100.00;96683.06;4952252;28;104673;-76
2023/08/13 04:57:59;;;;;;;5.03;4.30;;;;;;;19.72;100.00;96675.88;4951573;28;105574;-76
2023/08/13 05:00:26;;;;;;;5.27;4.77;;;;;;;19.73;100.00;96677.47;4952318;28;102153;-76
2023/08/13 05:02:53;;;;;;;5.37;4.50;;;;;;;19.69;100.00;96679.19;4952075;28;105188;-76
2023/08/13 05:05:21;;;;;;;4.97;4.57;;;;;;;19.75;100.00;96677.97;4954832;28;105623;-76
2023/08/13 05:07:48;;;;;;;5.13;4.60;;;;;;;19.84;100.00;96684.28;4952005;28;105559;-76
2023/08/13 05:10:15;;;;;;;5.27;4.77;;;;;;;19.87;100.00;96683.66;4951520;28;105429;-76
2023/08/13 05:12:42;;;;;;;5.33;4.90;;;;;;;19.82;100.00;96691.84;4968371;28;102074;-78
2023/08/13 05:15:10;;;;;;;6.67;5.97;;;;;;;19.97;100.00;96691.53;4952047;28;105425;-78
2023/08/13 05:17:39;;;;;;;6.67;5.80;;;;;;;20.03;100.00;96693.03;4951280;28;105288;-75
2023/08/13 05:20:08;;;;;;;6.03;5.53;;;;;;;19.92;100.00;96692.47;4951909;28;102030;-83
2023/08/13 05:22:36;;;;;;;8.30;5.77;;;;;;;19.74;100.00;96687.16;4970652;28;104178;-77
2023/08/13 05:25:03;;;;;;;6.37;5.47;;;;;;;19.83;100.00;96696.16;4954712;28;105449;-75
2023/08/13 05:27:30;;;;;;;6.73;4.73;;;;;;;20.14;100.00;96689.84;4974877;28;102203;-75
2023/08/13 05:29:58;;;;;;;4.93;4.53;;;;;;;20.31;100.00;96683.78;4954618;28;105201;-79
2023/08/13 05:32:25;;;;;;;5.00;4.60;;;;;;;20.44;100.00;96682.97;4971641;28;101939;-75
2023/08/13 05:34:53;;;;;;;5.53;4.37;;;;;;;20.65;100.00;96684.09;4954890;28;105338;-76
2023/08/13 05:37:21;;;;;;;5.37;4.43;;;;;;;20.73;100.00;96678.75;4954368;28;105189;-75
2023/08/13 05:39:50;;;;;;;4.50;4.03;;;;;;;20.79;100.00;96674.00;4971640;28;102071;-77
2023/08/13 05:42:17;;;;;;;4.77;4.00;;;;;;;21.07;100.00;96670.88;4955065;28;105086;-77
2023/08/13 05:44:44;;;;;;;4.40;4.00;;;;;;;21.27;100.00;96666.84;4954356;28;105659;-77
2023/08/13 05:47:13;;;;;;;5.13;4.10;;;;;;;21.46;100.00;96665.50;4954986;28;102063;-77
2023/08/13 05:49:39;;;;;;;4.57;3.67;;;;;;;21.41;100.00;96659.44;4957930;28;105331;-73
2023/08/13 05:52:07;;;;;;;5.10;3.60;;;;;;;21.41;100.00;96643.22;4955027;28;102050;-76
2023/08/13 05:54:34;;;;;;;3.90;3.47;;;;;;;21.50;100.00;96644.84;4955742;28;105458;-75
2023/08/13 05:57:02;;;;;;;5.00;3.40;;;;;;;21.59;100.00;96647.56;4954955;28;105798;-76
2023/08/13 05:59:29;;;;;;;4.33;3.40;;;;;;;21.48;100.00;96644.34;4955525;28;102068;-75
2023/08/13 06:01:56;;;;;;;3.53;3.23;;;;;;;21.41;100.00;96643.22;4973259;28;102993;-78
2023/08/13 06:04:22;;;;;;;4.00;3.37;;;;;;;21.56;100.00;96650.91;4954725;28;105825;-75
2023/08/13 06:06:49;;;;;;;4.37;3.80;;;;;;;21.70;100.00;96651.63;4955429;28;101915;-76
2023/08/13 06:09:17;;;;;;;3.80;3.50;;;;;;;21.77;100.00;96647.34;4975761;28;104027;-76
2023/08/13 06:11:43;;;;;;;4.63;3.40;;;;;;;21.72;100.00;96643.97;4955274;28;102168;-78
2023/08/13 06:14:12;;;;;;;3.23;2.93;;;;;;;21.70;100.00;96640.78;4955292;28;105339;-73
2023/08/13 06:16:39;;;;;;;3.27;3.00;;;;;;;21.97;100.00;96635.13;4954619;28;105794;-79
2023/08/13 06:19:06;;;;;;;4.03;2.93;;;;;;;22.07;100.00;96629.41;4955370;28;102038;-73
2023/08/13 06:21:33;;;;;;;3.63;2.80;;;;;;;22.05;100.00;96631.59;4955202;28;105485;-73
2023/08/13 06:24:00;;;;;;;3.10;2.80;;;;;;;22.13;100.00;96634.31;4954475;28;105499;-73
2023/08/13 06:26:27;;;;;;;3.20;2.77;;;;;;;22.42;100.00;96631.00;4954729;28;102206;-73
2023/08/13 06:28:54;;;;;;;3.13;2.83;;;;;;;22.53;100.00;96621.47;4955106;28;105455;-73
2023/08/13 06:31:23;;;;;;;2.90;2.70;;;;;;;22.53;100.00;96624.16;4957789;28;106154;-76
2023/08/13 06:33:49;;;;;;;2.57;2.37;;;;;;;22.88;100.00;96623.78;4970514;28;105442;-78
2023/08/13 06:36:16;;;;;;;3.43;3.03;;;;;;;23.01;100.00;96627.44;4953913;28;105289;-78
2023/08/13 06:38:43;;;;;;;2.63;2.43;;;;;;;23.19;100.00;96624.41;4970973;28;102014;-78
2023/08/13 06:41:10;;;;;;;5.80;3.13;;;;;;;23.30;100.00;96625.63;4954926;28;105050;-78
2023/08/13 06:43:38;;;;;;;3.33;2.40;;;;;;;23.44;100.00;96626.19;4954135;28;105110;-78
2023/08/13 06:46:05;;;;;;;4.07;2.33;;;;;;;23.27;100.00;96620.06;4954563;28;102069;-78
2023/08/13 06:48:36;;;;;;;3.20;2.70;;;;;;;23.33;100.00;96621.47;4985659;28;105747;-78
2023/08/13 06:51:02;;;;;;;4.27;2.47;;;;;;;23.51;100.00;96631.13;4973531;28;105063;-78
2023/08/13 06:53:29;;;;;;;2.37;2.17;;;;;;;23.63;100.00;96629.31;4995582;28;102148;-78
2023/08/13 06:56:01;;;;;;;4.23;2.60;;;;;;;23.66;100.00;96622.44;4973234;28;104365;-77
2023/08/13 06:58:28;;;;;;;8.37;7.10;;;;;;;23.58;100.00;96624.06;4992183;28;101837;-78
2023/08/13 07:00:54;;;;;;;2.67;2.47;;;;;;;23.26;100.00;96615.75;4990777;28;105225;-78
2023/08/13 07:03:21;;;;;;;4.20;3.60;;;;;;;23.68;100.00;96618.28;4991180;28;102733;-78
2023/08/13 07:05:50;;;;;;;2.70;2.50;;;;;;;23.73;100.00;96622.69;4991665;28;101958;-78
2023/08/13 07:08:17;;;;;;;2.83;2.23;;;;;;;23.80;100.00;96622.97;4974125;28;104758;-78
2023/08/13 07:10:44;;;;;;;2.60;2.20;;;;;;;23.89;100.00;96621.03;4973332;28;105492;-76
2023/08/13 07:13:11;;;;;;;4.70;4.10;;;;;;;23.98;100.00;96621.81;4973680;28;102316;-76
2023/08/13 07:15:38;;;;;;;5.33;3.73;;;;;;;24.27;100.00;96614.41;4993012;28;105589;-76
2023/08/13 07:18:05;;;;;;;3.20;2.50;;;;;;;24.45;100.00;96612.31;4973826;28;102008;-78
2023/08/13 07:20:32;;;;;;;5.37;2.60;;;;;;;24.34;100.00;96614.66;4991688;28;102989;-78
2023/08/13 07:23:01;;;;;;;3.43;2.73;;;;;;;24.44;100.00;96610.72;4973124;28;105635;-78
2023/08/13 07:25:28;;;;;;;3.20;2.77;;;;;;;24.54;100.00;96613.03;4973888;28;102256;-78
2023/08/13 07:27:55;;;;;;;3.70;3.30;;;;;;;24.74;100.00;96604.09;4973188;28;105726;-78
2023/08/13 07:30:21;;;;;;;3.43;2.70;;;;;;;24.96;100.00;96604.47;4989433;28;105564;-78
2023/08/13 07:32:48;;;;;;;4.70;3.30;;;;;;;25.06;100.00;96606.00;4973683;28;102039;-78
2023/08/13 07:35:15;;;;;;;3.20;2.90;;;;;;;25.27;100.00;96604.00;4973476;28;105606;-78
2023/08/13 07:37:42;;;;;;;4.00;3.53;;;;;;;25.50;100.00;96599.75;4976252;28;105923;-78
2023/08/13 07:40:13;;;;;;;3.47;3.00;;;;;;;25.50;100.00;96595.06;4990720;28;102026;-78
2023/08/13 07:42:40;;;;;;;3.20;2.90;;;;;;;25.04;100.00;96597.38;4989303;28;105626;-78
2023/08/13 07:45:08;;;;;;;2.73;2.53;;;;;;;25.50;100.00;96588.84;4988869;28;102041;-78
2023/08/13 07:47:36;;;;;;;3.20;2.47;;;;;;;25.06;100.00;96595.91;4973292;28;105379;-78
2023/08/13 07:50:05;;;;;;;3.17;2.90;;;;;;;25.26;100.00;96588.81;4972691;28;103546;-77
2023/08/13 07:52:34;;;;;;;2.63;2.43;;;;;;;25.48;100.00;96585.66;4973323;28;101930;-78
2023/08/13 07:55:01;;;;;;;4.53;2.93;;;;;;;25.80;100.00;96582.81;4989684;28;103866;-78
2023/08/13 07:57:30;;;;;;;2.60;2.40;;;;;;;25.12;100.00;96591.81;4972681;28;105833;-78
2023/08/13 07:59:57;;;;;;;2.70;2.50;;;;;;;25.47;100.00;96584.06;4976399;28;101950;-78
2023/08/13 08:02:24;;;;;;;3.13;2.67;;;;;;;25.86;100.00;96581.44;4989085;28;105555;-78
2023/08/13 08:04:52;;;;;;;2.40;2.20;;;;;;;26.21;100.00;96587.19;4989649;28;101976;-78
2023/08/13 08:07:19;;;;;;;4.03;2.50;;;;;;;26.38;100.00;96581.47;4989614;28;103930;-78
2023/08/13 08:09:46;;;;;;;5.73;2.60;;;;;;;26.27;100.00;96580.34;4988899;28;105027;-78
2023/08/13 08:12:13;;;;;;;3.63;2.40;;;;;;;26.40;100.00;96568.25;4989684;28;102124;-78
2023/08/13 08:14:42;;;;;;;3.07;2.77;;;;;;;26.79;100.00;96570.16;4972978;28;105066;-78
2023/08/13 08:17:09;;;;;;;2.10;2.00;;;;;;;26.97;100.00;96558.56;4972477;28;105742;-78
2023/08/13 08:19:36;;;;;;;2.40;2.20;;;;;;;26.99;100.00;96564.50;4976338;28;101925;-78
2023/08/13 08:22:03;;;;;;;3.80;2.53;;;;;;;27.26;100.00;96562.84;4972323;28;105496;-78
2023/08/13 08:24:30;;;;;;;2.90;2.70;;;;;;;27.53;100.00;96556.50;4989458;28;102115;-78
2023/08/13 08:26:57;;;;;;;3.40;3.10;;;;;;;27.62;100.00;96563.34;4987647;28;104952;-78
2023/08/13 08:29:24;;;;;;;3.03;2.83;;;;;;;27.62;100.00;96557.88;4971492;28;106038;-78
2023/08/13 08:31:53;;;;;;;2.77;2.47;;;;;;;27.89;100.00;96548.78;4972186;28;102180;-78
2023/08/13 08:34:20;;;;;;;2.20;2.10;;;;;;;27.94;100.00;96550.44;4972059;28;106024;-78
2023/08/13 08:36:47;;;;;;;2.40;2.10;;;;;;;28.03;100.00;96553.78;4987282;28;105825;-78
2023/08/13 08:39:14;;;;;;;2.10;1.90;;;;;;;28.18;100.00;96553.72;4990050;28;101824;-78
2023/08/13 08:41:46;;;;;;;2.23;2.07;;;;;;;28.11;100.00;96553.56;4974682;28;105377;-78
2023/08/13 08:44:19;;;;;;;2.13;1.90;;;;;;;28.31;100.00;96568.03;4971828;28;102196;-78
2023/08/13 08:46:48;;;;;;;2.08;1.95;;;;;;;28.11;100.00;96552.78;4971938;28;105668;-78
2023/08/13 08:49:18;;;;;;;2.50;2.20;;;;;;;28.12;100.00;96557.09;4987968;28;105665;-78
2023/08/13 08:51:46;;;;;;;1.93;1.70;;;;;;;28.33;100.00;96554.81;4971898;28;101938;-78
2023/08/13 08:54:13;;;;;;;2.43;1.93;;;;;;;28.08;100.00;96546.09;4972112;28;104945;-78
2023/08/13 08:56:40;;;;;;;2.40;2.10;;;;;;;27.67;100.00;96543.97;4990222;28;105985;-78
2023/08/13 08:59:07;;;;;;;2.50;2.30;;;;;;;27.10;100.00;96538.25;4991828;28;102050;-78
2023/08/13 09:01:34;;;;;;;2.20;2.00;;;;;;;27.77;100.00;96548.06;4975345;28;105403;-78
2023/08/13 09:04:02;;;;;;;3.97;2.10;;;;;;;28.21;100.00;96539.34;4994688;28;105165;-78
2023/08/13 09:06:54;;;;;;;2.80;2.23;;;;;;;27.57;100.00;96533.56;4991793;28;105435;-78
2023/08/13 09:09:22;;;;;;;3.30;2.40;;;;;;;27.74;100.00;96535.13;4974399;28;105270;-78
2023/08/13 09:11:49;;;;;;;2.10;2.00;;;;;;;28.42;100.00;96541.72;4991766;28;101947;-78
2023/08/13 09:14:16;;;;;;;2.97;2.20;;;;;;;28.66;100.00;96527.75;4991435;28;105727;-78
2023/08/13 09:16:45;;;;;;;2.40;2.20;;;;;;;28.76;100.00;96529.91;4974350;28;105404;-78
2023/08/13 09:19:12;;;;;;;3.07;2.20;;;;;;;28.46;100.00;96528.91;4975169;28;102010;-78
2023/08/13 09:21:39;;;;;;;2.40;2.20;;;;;;;28.68;100.00;96528.19;4991539;28;105309;-78
2023/08/13 09:24:09;;;;;;;4.10;2.30;;;;;;;27.72;100.00;96531.94;4992048;28;102023;-78
2023/08/13 09:26:37;;;;;;;3.13;2.40;;;;;;;27.81;100.00;96536.13;4978117;28;102678;-78
2023/08/13 09:29:08;;;;;;;3.47;2.40;;;;;;;28.45;100.00;96533.59;4990593;28;104198;-78
2023/08/13 09:31:35;;;;;;;4.00;2.37;;;;;;;28.27;100.00;96534.38;4974740;28;102275;-78
2023/08/13 09:34:02;;;;;;;2.10;2.00;;;;;;;28.03;100.00;96524.50;4974853;28;104950;-78
2023/08/13 09:36:30;;;;;;;3.25;2.60;;;;;;;29.07;100.00;96524.22;4990498;28;105464;-78
2023/08/13 09:38:57;;;;;;;2.88;2.40;;;;;;;29.66;100.00;96518.97;4974777;28;101867;-78
2023/08/13 09:41:26;;;;;;;3.45;2.58;;;;;;;29.97;100.00;96515.88;4974817;28;105125;-78
2023/08/13 09:43:55;;;;;;;3.15;2.50;;;;;;;29.98;100.00;96514.72;4991571;28;103090;-78
2023/08/13 09:46:26;;;;;;;2.42;2.22;;;;;;;30.30;100.00;96513.22;4991075;28;101955;-78
2023/08/13 09:48:55;;;;;;;3.45;2.47;;;;;;;30.24;100.00;96518.22;4993965;28;104908;-78
2023/08/13 09:51:29;;;;;;;2.60;2.40;;;;;;;29.75;100.00;96514.78;4991359;28;101806;-78
2023/08/13 09:54:13;;;;;;;2.55;2.10;;;;;;;29.72;100.00;96520.22;4974658;28;105998;-78
2023/08/13 09:56:45;;;;;;;5.13;2.40;;;;;;;30.15;100.00;96512.25;4991704;28;101849;-78
2023/08/13 09:59:12;;;;;;;2.70;2.40;;;;;;;30.24;100.00;96515.47;4992321;28;101767;-78
2023/08/13 10:01:40;;;;;;;4.97;2.33;;;;;;;30.67;100.00;96511.31;4974385;28;105348;-78
2023/08/13 10:04:08;;;;;;;2.72;2.17;;;;;;;30.48;100.00;96514.19;4973847;28;105449;-78
2023/08/13 10:06:36;;;;;;;2.53;2.33;;;;;;;30.50;100.00;96518.16;4973823;28;101952;-78
2023/08/13 10:09:03;;;;;;;3.60;2.35;;;;;;;30.45;100.00;96510.25;4990582;28;103977;-78
2023/08/13 10:11:30;;;;;;;2.75;2.55;;;;;;;29.85;100.00;96513.38;4993191;28;102089;-78
2023/08/13 10:13:59;;;;;;;3.00;2.72;;;;;;;29.70;100.00;96522.53;4974232;28;105830;-78
2023/08/13 10:16:27;;;;;;;3.13;2.60;;;;;;;29.72;100.00;96512.00;4990087;28;105629;-78
2023/08/13 10:18:57;;;;;;;3.53;2.83;;;;;;;29.49;100.00;96516.72;4990444;28;102002;-78
2023/08/13 10:21:34;;;;;;;3.10;2.75;;;;;;;29.47;100.00;96508.06;4990733;28;105451;-78
2023/08/13 10:24:02;;;;;;;3.67;2.60;;;;;;;30.09;100.00;96504.69;4973465;28;105379;-78
2023/08/13 10:26:29;;;;;;;5.75;2.97;;;;;;;29.58;100.00;96509.06;4973531;28;102462;-78
2023/08/13 10:28:56;;;;;;;3.17;2.92;;;;;;;29.62;100.00;96507.13;4991914;28;102931;-78
2023/08/13 10:31:33;;;;;;;3.40;3.10;;;;;;;30.49;100.00;96510.28;4976696;28;105738;-78
2023/08/13 10:34:18;;;;;;;3.80;2.92;;;;;;;30.93;100.00;96505.69;4990467;28;104886;-78
2023/08/13 10:36:51;;;;;;;3.40;3.10;;;;;;;31.83;100.00;96504.91;4972883;28;105143;-78
2023/08/13 10:39:33;;;;;;;2.90;2.70;;;;;;;31.96;100.00;96501.44;4990399;28;102390;-78
2023/08/13 10:42:00;;;;;;;3.22;2.70;;;;;;;31.13;100.00;96501.56;4990367;28;105140;-78
2023/08/13 10:44:28;;;;;;;3.47;2.83;;;;;;;30.92;100.00;96498.63;4973095;28;105616;-78
2023/08/13 10:46:57;;;;;;;3.88;2.80;;;;;;;30.53;100.00;96492.72;4990281;28;101950;-78
2023/08/13 10:49:26;;;;;;;3.15;2.85;;;;;;;31.34;100.00;96490.78;4991488;28;102636;-78
2023/08/13 10:51:53;;;;;;;3.00;2.60;;;;;;;31.97;100.00;96492.00;4990733;28;102758;-78
2023/08/13 10:54:20;;;;;;;4.25;2.58;;;;;;;32.26;100.00;96492.97;4976877;28;101942;-78
2023/08/13 10:56:55;;;;;;;2.65;2.45;;;;;;;32.47;100.00;96485.56;4972862;28;105541;-78
2023/08/13 10:59:29;;;;;;;3.25;2.67;;;;;;;32.93;86.10;96483.75;4973575;28;102108;-78
2023/08/13 11:02:17;;;;;;;3.17;2.88;;;;;;;33.25;90.00;96484.56;4991452;28;102558;-78
2023/08/13 11:04:46;;;;;;;3.05;2.50;;;;;;;33.08;97.06;96485.31;4972729;28;105086;-78
2023/08/13 11:07:14;;;;;;;3.17;2.78;;;;;;;33.52;89.14;96482.22;4973395;28;102158;-78
2023/08/13 11:09:43;;;;;;;2.97;2.50;;;;;;;33.92;83.60;96479.00;4973063;28;105122;-78
2023/08/13 11:12:10;;;;;;;3.20;2.53;;;;;;;33.64;78.90;96473.53;4972611;28;105149;-78
2023/08/13 11:14:38;;;;;;;2.83;2.60;;;;;;;34.13;78.97;96473.41;4973323;28;101920;-78
2023/08/13 11:17:05;;;;;;;3.75;2.88;;;;;;;33.83;72.80;96473.13;4975819;28;105065;-78
2023/08/13 11:19:34;;;;;;;3.35;2.50;;;;;;;33.44;85.34;96469.59;4989744;28;102142;-78
2023/08/13 11:22:02;;;;;;;3.00;2.65;;;;;;;33.98;79.42;96474.66;4973032;28;105440;-78